Time;durP1;ratioP1;P1;durP2;ratioP2;P2;SDS_P1;SDS_P2;PMS_P1;PMS_P2;Temp;Humidity;BMP_temperature;BMP_pressure;BME280_temperature;BME280_humidity;BME280_pressure;Samples;Min_cycle;Max_cycle;Signal;HPM_P1;HPM_P2
2023/07/28 00:02:11;;;;;;;5.05;2.60;;;17.70;99.90;;;;;;4995485;28;20493;-74
2023/07/28 00:04:39;;;;;;;6.22;2.42;;;17.70;99.90;;;;;;4986535;28;20030;-73
2023/07/28 00:07:05;;;;;;;4.07;2.63;;;17.70;99.90;;;;;;4995261;28;20072;-74
2023/07/28 00:09:31;;;;;;;4.68;2.63;;;17.70;99.90;;;;;;4995224;28;20031;-73
2023/07/28 00:11:57;;;;;;;4.55;3.10;;;17.60;99.90;;;;;;4978917;28;20033;-73
2023/07/28 00:14:24;;;;;;;4.20;2.83;;;17.60;99.90;;;;;;4975342;28;20556;-73
2023/07/28 00:16:51;;;;;;;5.47;2.72;;;17.60;99.90;;;;;;4973105;28;20031;-74
2023/07/28 00:19:23;;;;;;;4.28;2.38;;;17.60;99.90;;;;;;4975301;28;20027;-73
2023/07/28 00:22:00;;;;;;;5.30;2.90;;;17.60;99.90;;;;;;4966255;28;20042;-74
2023/07/28 00:24:26;;;;;;;5.55;2.38;;;17.50;99.90;;;;;;4975358;28;20031;-74
2023/07/28 00:26:52;;;;;;;3.40;2.00;;;17.50;99.90;;;;;;4975563;28;20030;-74
2023/07/28 00:29:20;;;;;;;4.25;2.58;;;17.40;99.90;;;;;;4990276;28;20118;-73
2023/07/28 00:31:46;;;;;;;4.63;2.67;;;17.40;99.90;;;;;;4974034;28;20023;-73
2023/07/28 00:34:11;;;;;;;5.03;2.85;;;17.40;99.90;;;;;;4975693;28;20034;-72
2023/07/28 00:36:40;;;;;;;4.20;2.80;;;17.30;99.90;;;;;;4957297;28;20574;-72
2023/07/28 00:39:06;;;;;;;5.43;3.30;;;17.30;99.90;;;;;;4970316;28;20027;-71
2023/07/28 00:41:32;;;;;;;5.22;3.03;;;17.30;99.90;;;;;;4970330;28;20089;-72
2023/07/28 00:44:03;;;;;;;10.70;4.60;;;17.30;99.90;;;;;;4973710;28;20037;-72
2023/07/28 00:46:29;;;;;;;8.10;4.13;;;17.30;99.90;;;;;;4975021;28;20732;-74
2023/07/28 00:48:57;;;;;;;7.65;4.40;;;17.20;99.90;;;;;;4973612;28;20031;-74
2023/07/28 00:51:23;;;;;;;5.95;4.07;;;17.20;99.90;;;;;;4971977;28;20574;-74
2023/07/28 00:53:53;;;;;;;6.82;3.75;;;17.20;99.90;;;;;;4985745;28;20031;-73
2023/07/28 00:56:19;;;;;;;10.80;3.47;;;17.20;99.90;;;;;;4982810;28;20035;-73
2023/07/28 00:58:45;;;;;;;8.35;4.03;;;17.20;99.90;;;;;;4973358;28;20441;-73
2023/07/28 01:01:10;;;;;;;7.00;4.47;;;17.10;99.90;;;;;;4974728;28;20022;-73
2023/07/28 01:03:39;;;;;;;5.43;3.20;;;17.10;99.90;;;;;;4974887;28;20027;-74
2023/07/28 01:06:26;;;;;;;6.35;3.03;;;17.10;99.90;;;;;;4974683;28;20042;-72
2023/07/28 01:09:05;;;;;;;3.53;2.33;;;17.10;99.90;;;;;;4977969;28;20478;-72
2023/07/28 01:11:30;;;;;;;4.85;2.85;;;17.10;99.90;;;;;;4971094;28;20046;-72
2023/07/28 01:13:59;;;;;;;4.55;2.47;;;17.00;99.90;;;;;;4971200;28;20080;-72
2023/07/28 01:16:24;;;;;;;5.00;2.28;;;17.00;99.90;;;;;;4973317;28;20054;-71
2023/07/28 01:18:56;;;;;;;4.13;2.25;;;17.00;99.90;;;;;;4972057;28;20454;-74
2023/07/28 01:21:29;;;;;;;5.07;2.45;;;17.00;99.90;;;;;;4971071;28;20061;-73
2023/07/28 01:24:27;;;;;;;2.55;1.85;;;16.90;99.90;;;;;;4969992;28;20053;-73
2023/07/28 01:26:55;;;;;;;4.97;1.90;;;16.90;99.90;;;;;;4970825;28;20031;-73
2023/07/28 01:29:25;;;;;;;7.63;2.10;;;17.00;99.90;;;;;;4969705;28;20030;-73
2023/07/28 01:31:51;;;;;;;3.22;1.98;;;16.90;99.90;;;;;;4971665;28;20039;-72
2023/07/28 01:34:17;;;;;;;4.28;2.22;;;16.90;99.90;;;;;;4969600;28;20035;-73
2023/07/28 01:36:54;;;;;;;3.63;1.60;;;17.00;99.90;;;;;;4967467;28;20027;-73
2023/07/28 01:39:23;;;;;;;3.65;2.00;;;17.00;99.90;;;;;;4975685;28;20038;-72
2023/07/28 01:41:48;;;;;;;2.97;1.80;;;16.90;99.90;;;;;;4972610;28;20026;-73
2023/07/28 01:44:14;;;;;;;3.17;1.98;;;17.00;99.90;;;;;;4968857;28;20100;-74
2023/07/28 01:46:40;;;;;;;2.97;1.80;;;16.90;99.90;;;;;;4972266;28;20041;-73
2023/07/28 01:49:05;;;;;;;3.22;1.75;;;16.90;99.90;;;;;;4972600;28;20418;-73
2023/07/28 01:51:31;;;;;;;3.28;2.03;;;16.90;99.90;;;;;;4972166;28;20027;-73
2023/07/28 01:53:56;;;;;;;3.92;1.95;;;16.90;99.90;;;;;;4970525;28;20449;-72
2023/07/28 01:56:22;;;;;;;2.35;1.77;;;16.90;99.90;;;;;;4964930;28;20034;-71
2023/07/28 01:58:47;;;;;;;3.30;1.85;;;16.90;99.90;;;;;;4969444;28;20054;-72
2023/07/28 02:01:16;;;;;;;2.92;1.75;;;16.90;99.90;;;;;;4973482;28;20034;-72
2023/07/28 02:03:42;;;;;;;3.45;1.70;;;16.80;99.90;;;;;;4973364;28;20023;-72
2023/07/28 02:06:11;;;;;;;6.20;1.98;;;16.80;99.90;;;;;;4975405;28;20066;-71
2023/07/28 02:08:36;;;;;;;3.55;1.80;;;16.80;99.90;;;;;;4973483;28;20053;-73
2023/07/28 02:11:02;;;;;;;4.43;1.88;;;16.70;99.90;;;;;;4972849;28;20050;-72
2023/07/28 02:13:31;;;;;;;3.97;2.20;;;16.70;99.90;;;;;;4967794;28;20031;-75
2023/07/28 02:16:02;;;;;;;3.47;2.40;;;16.70;99.90;;;;;;4967322;28;20031;-72
2023/07/28 02:18:28;;;;;;;2.42;1.92;;;16.70;99.90;;;;;;4963461;28;20572;-75
2023/07/28 02:20:53;;;;;;;6.50;2.45;;;16.70;99.90;;;;;;4965205;28;20058;-75
2023/07/28 02:23:20;;;;;;;2.80;1.77;;;16.70;99.90;;;;;;4968428;28;20406;-75
2023/07/28 02:25:48;;;;;;;3.58;1.85;;;16.70;99.90;;;;;;4970684;28;20034;-71
2023/07/28 02:28:14;;;;;;;2.47;1.65;;;16.60;99.90;;;;;;4966318;28;20035;-75
2023/07/28 02:30:40;;;;;;;4.00;1.92;;;16.60;99.90;;;;;;4965194;28;20038;-72
2023/07/28 02:33:08;;;;;;;4.40;1.63;;;16.60;99.90;;;;;;4967163;28;20085;-74
2023/07/28 02:35:34;;;;;;;2.53;1.60;;;16.60;99.90;;;;;;4965755;28;20081;-75
2023/07/28 02:38:03;;;;;;;3.22;2.00;;;16.60;99.90;;;;;;4981572;28;20020;-72
2023/07/28 02:40:28;;;;;;;3.63;1.92;;;16.60;99.90;;;;;;4961719;28;20043;-72
2023/07/28 02:42:54;;;;;;;2.75;1.90;;;16.60;99.90;;;;;;4968154;28;20034;-74
2023/07/28 02:45:20;;;;;;;3.40;2.10;;;16.60;99.90;;;;;;4968206;28;20054;-75
2023/07/28 02:47:48;;;;;;;3.63;1.88;;;16.50;99.90;;;;;;4965971;28;20591;-75
2023/07/28 02:50:17;;;;;;;3.60;1.88;;;16.60;99.90;;;;;;4963672;28;20049;-75
2023/07/28 02:52:43;;;;;;;4.60;2.20;;;16.50;99.90;;;;;;4968850;28;20031;-74
2023/07/28 02:55:08;;;;;;;3.15;2.10;;;16.50;99.90;;;;;;4964542;28;20524;-75
2023/07/28 02:57:37;;;;;;;4.55;1.92;;;16.50;99.90;;;;;;4970576;28;20111;-71
2023/07/28 03:00:05;;;;;;;2.75;1.85;;;16.50;99.90;;;;;;4966825;28;20093;-72
2023/07/28 03:02:37;;;;;;;4.15;2.20;;;16.50;99.90;;;;;;4968999;28;20023;-72
2023/07/28 03:05:03;;;;;;;3.65;2.08;;;16.50;99.90;;;;;;4966587;28;20046;-73
2023/07/28 03:07:30;;;;;;;2.58;1.90;;;16.50;99.90;;;;;;4968129;28;20018;-72
2023/07/28 03:09:55;;;;;;;3.75;1.95;;;16.50;99.90;;;;;;4963851;28;20978;-72
2023/07/28 03:12:21;;;;;;;5.57;1.83;;;16.50;99.90;;;;;;4967581;28;20024;-72
2023/07/28 03:14:47;;;;;;;2.70;1.98;;;16.50;99.90;;;;;;4966885;28;20035;-72
2023/07/28 03:17:12;;;;;;;2.97;1.90;;;16.50;99.90;;;;;;4962619;28;20085;-73
2023/07/28 03:19:38;;;;;;;2.33;1.67;;;16.40;99.90;;;;;;4967479;28;20546;-72
2023/07/28 03:22:03;;;;;;;3.78;2.10;;;16.50;99.90;;;;;;4965263;28;20046;-72
2023/07/28 03:24:35;;;;;;;3.25;1.75;;;16.50;99.90;;;;;;4968363;28;20046;-72
2023/07/28 03:27:00;;;;;;;2.92;1.63;;;16.50;99.90;;;;;;4968032;28;20046;-73
2023/07/28 03:29:26;;;;;;;3.10;1.73;;;16.50;99.90;;;;;;4965970;28;20122;-73
2023/07/28 03:31:54;;;;;;;3.00;2.03;;;16.50;99.90;;;;;;4967778;28;20417;-73
2023/07/28 03:34:23;;;;;;;2.80;2.28;;;16.50;99.90;;;;;;4967332;28;20030;-73
2023/07/28 03:36:48;;;;;;;2.90;1.67;;;16.50;99.90;;;;;;4963843;28;20047;-73
2023/07/28 03:39:17;;;;;;;4.00;2.15;;;16.50;99.90;;;;;;4968076;28;20485;-72
2023/07/28 03:41:52;;;;;;;3.30;1.67;;;16.50;99.90;;;;;;4965972;28;20391;-73
2023/07/28 03:44:21;;;;;;;4.15;2.55;;;16.50;99.90;;;;;;4966216;28;20482;-73
2023/07/28 03:46:49;;;;;;;3.53;1.98;;;16.50;99.90;;;;;;4961463;28;20505;-73
2023/07/28 03:49:21;;;;;;;3.28;2.30;;;16.50;99.90;;;;;;4963151;28;20045;-73
2023/07/28 03:51:49;;;;;;;3.03;2.08;;;16.50;99.90;;;;;;4968264;28;20120;-73
2023/07/28 03:54:18;;;;;;;5.68;2.22;;;16.50;99.90;;;;;;4972888;28;20109;-73
2023/07/28 03:56:49;;;;;;;4.30;2.30;;;16.50;99.90;;;;;;4969131;28;20533;-72
2023/07/28 03:59:15;;;;;;;6.07;1.92;;;16.50;99.90;;;;;;4971268;28;20442;-73
2023/07/28 04:01:40;;;;;;;4.50;2.53;;;16.50;99.90;;;;;;4971280;28;20121;-73
2023/07/28 04:04:06;;;;;;;3.35;2.53;;;16.50;99.90;;;;;;4968266;28;20037;-73
2023/07/28 04:07:09;;;;;;;5.20;2.75;;;16.50;99.90;;;;;;4971010;28;20386;-73
2023/07/28 04:09:34;;;;;;;4.90;2.70;;;16.60;99.90;;;;;;4967458;28;20043;-73
2023/07/28 04:12:00;;;;;;;4.43;2.03;;;16.60;99.90;;;;;;4969876;28;20086;-73
2023/07/28 04:14:28;;;;;;;5.13;2.47;;;16.60;99.90;;;;;;4969661;28;20027;-73
2023/07/28 04:16:54;;;;;;;6.82;2.85;;;16.60;99.90;;;;;;4971534;28;20069;-73
2023/07/28 04:19:29;;;;;;;3.20;2.25;;;16.50;99.90;;;;;;4970244;28;20058;-73
2023/07/28 04:21:56;;;;;;;3.55;2.40;;;16.60;99.90;;;;;;4981618;28;20130;-73
2023/07/28 04:24:25;;;;;;;3.25;2.30;;;16.60;99.90;;;;;;4968174;28;20093;-73
2023/07/28 04:26:53;;;;;;;5.28;3.00;;;16.60;99.90;;;;;;4969692;28;20027;-73
2023/07/28 04:29:26;;;;;;;5.00;2.78;;;16.60;99.90;;;;;;4967827;28;20077;-73
2023/07/28 04:31:55;;;;;;;5.77;2.80;;;16.70;99.90;;;;;;4967984;28;20031;-72
2023/07/28 04:34:24;;;;;;;4.03;2.80;;;16.70;99.90;;;;;;4971128;28;20486;-73
2023/07/28 04:36:49;;;;;;;4.40;2.33;;;16.70;99.90;;;;;;4969474;28;20061;-73
2023/07/28 04:39:15;;;;;;;3.70;2.58;;;16.70;99.90;;;;;;4963949;28;20053;-73
2023/07/28 04:41:40;;;;;;;4.47;2.40;;;16.70;99.90;;;;;;4961676;28;20448;-73
2023/07/28 04:44:06;;;;;;;3.63;2.60;;;16.70;99.90;;;;;;4960631;28;20031;-72
2023/07/28 04:46:34;;;;;;;4.10;2.60;;;16.80;99.90;;;;;;4970681;28;20122;-73
2023/07/28 04:49:02;;;;;;;4.35;2.83;;;16.80;99.90;;;;;;4970553;28;20359;-72
2023/07/28 04:51:30;;;;;;;6.82;2.78;;;16.80;99.90;;;;;;4971893;28;20034;-73
2023/07/28 04:53:56;;;;;;;3.72;2.80;;;16.90;99.90;;;;;;4969500;28;20086;-72
2023/07/28 04:56:25;;;;;;;5.88;2.83;;;16.90;99.90;;;;;;4969971;28;20036;-73
2023/07/28 04:58:50;;;;;;;6.00;3.08;;;16.90;99.90;;;;;;4964339;28;20085;-73
2023/07/28 05:01:16;;;;;;;7.38;3.38;;;16.90;99.90;;;;;;4965854;28;20031;-72
2023/07/28 05:03:47;;;;;;;9.60;3.70;;;17.00;99.90;;;;;;4972714;28;20425;-72
2023/07/28 05:06:14;;;;;;;7.82;2.92;;;17.00;99.90;;;;;;4972827;28;20026;-71
2023/07/28 05:08:40;;;;;;;5.53;3.30;;;17.00;99.90;;;;;;4975312;28;20072;-69
2023/07/28 05:11:05;;;;;;;8.60;3.78;;;17.00;99.90;;;;;;4974438;28;20106;-68
2023/07/28 05:13:34;;;;;;;5.82;3.55;;;17.00;99.90;;;;;;4974466;28;20031;-71
2023/07/28 05:15:59;;;;;;;3.38;3.08;;;17.10;99.90;;;;;;4974923;28;20389;-71
2023/07/28 05:18:34;;;;;;;6.47;3.35;;;17.10;99.90;;;;;;4974998;28;20027;-71
2023/07/28 05:21:00;;;;;;;8.50;3.50;;;17.10;99.90;;;;;;4988638;28;20049;-71
2023/07/28 05:23:25;;;;;;;7.90;3.45;;;17.20;99.90;;;;;;4975227;28;20042;-72
2023/07/28 05:25:51;;;;;;;7.40;3.50;;;17.20;99.90;;;;;;4974524;28;20090;-72
2023/07/28 05:28:17;;;;;;;7.90;3.33;;;17.20;99.90;;;;;;4974470;28;20026;-73
2023/07/28 05:30:42;;;;;;;8.32;3.08;;;17.20;99.90;;;;;;4975059;28;20027;-71
2023/07/28 05:33:08;;;;;;;8.45;3.40;;;17.30;99.90;;;;;;4973536;28;20015;-72
2023/07/28 05:35:33;;;;;;;7.00;4.05;;;17.30;99.90;;;;;;4975480;28;20086;-74
2023/07/28 05:37:59;;;;;;;6.53;3.75;;;17.30;99.90;;;;;;4974648;28;20034;-73
2023/07/28 05:40:24;;;;;;;6.40;3.42;;;17.40;99.90;;;;;;4975068;28;20033;-74
2023/07/28 05:42:50;;;;;;;4.68;3.00;;;17.40;99.90;;;;;;4975238;28;20027;-74
2023/07/28 05:45:16;;;;;;;6.28;3.55;;;17.40;99.90;;;;;;4973655;28;20023;-72
2023/07/28 05:47:47;;;;;;;5.57;3.58;;;17.40;99.90;;;;;;4974996;28;20059;-76
2023/07/28 05:50:22;;;;;;;12.88;3.55;;;17.40;99.90;;;;;;4968640;28;20604;-76
2023/07/28 05:52:50;;;;;;;7.95;4.35;;;17.40;99.90;;;;;;4964782;28;20061;-76
2023/07/28 05:55:16;;;;;;;6.72;3.80;;;17.50;99.90;;;;;;4968495;28;20030;-75
2023/07/28 05:57:42;;;;;;;6.03;4.55;;;17.50;99.90;;;;;;4975757;28;20046;-75
2023/07/28 06:00:09;;;;;;;7.40;3.88;;;17.50;99.90;;;;;;4961211;28;20027;-76
2023/07/28 06:02:36;;;;;;;5.35;3.95;;;17.50;99.90;;;;;;4969293;28;20046;-75
2023/07/28 06:05:01;;;;;;;5.05;3.60;;;17.60;99.90;;;;;;4972274;28;20274;-76
2023/07/28 06:07:33;;;;;;;10.30;5.07;;;17.60;99.90;;;;;;4962766;28;20023;-76
2023/07/28 06:10:01;;;;;;;7.93;4.55;;;17.60;99.90;;;;;;4972729;28;20041;-76
2023/07/28 06:12:27;;;;;;;11.50;4.07;;;17.60;99.90;;;;;;4971280;28;20474;-76
2023/07/28 06:14:56;;;;;;;7.38;3.83;;;17.70;99.90;;;;;;4979110;28;20109;-76
2023/07/28 06:17:27;;;;;;;5.45;3.22;;;17.70;99.90;;;;;;4981961;28;20033;-76
2023/07/28 06:19:52;;;;;;;5.68;3.55;;;17.70;99.90;;;;;;4974406;28;20141;-76
2023/07/28 06:22:18;;;;;;;4.95;3.67;;;17.70;99.90;;;;;;4968430;28;20069;-73
2023/07/28 06:24:44;;;;;;;7.07;3.30;;;17.70;99.90;;;;;;4974547;28;20037;-74
2023/07/28 06:27:12;;;;;;;6.72;4.18;;;17.70;99.90;;;;;;4976903;28;20030;-73
2023/07/28 06:29:44;;;;;;;7.47;3.33;;;17.80;99.90;;;;;;4969946;28;20050;-73
2023/07/28 06:32:12;;;;;;;7.43;3.90;;;17.80;99.90;;;;;;4970732;28;20394;-74
2023/07/28 06:34:38;;;;;;;7.75;4.18;;;17.80;99.90;;;;;;4983195;28;20029;-73
2023/07/28 06:37:07;;;;;;;15.20;4.20;;;17.80;99.90;;;;;;4973118;28;20034;-76
2023/07/28 06:39:32;;;;;;;8.00;3.70;;;17.90;99.90;;;;;;4976482;28;20508;-76
2023/07/28 06:41:58;;;;;;;8.20;3.42;;;17.90;99.90;;;;;;4966080;28;20117;-76
2023/07/28 06:44:23;;;;;;;5.25;3.83;;;17.90;99.90;;;;;;4972792;28;20046;-74
2023/07/28 06:46:50;;;;;;;7.28;3.63;;;17.90;99.90;;;;;;4970229;28;20024;-76
2023/07/28 06:49:40;;;;;;;6.22;3.58;;;18.00;99.90;;;;;;4970271;28;20553;-74
2023/07/28 06:52:09;;;;;;;5.93;4.00;;;18.00;99.90;;;;;;4970640;28;20171;-74
2023/07/28 06:54:38;;;;;;;6.35;3.33;;;18.00;99.90;;;;;;4973199;28;20035;-74
2023/07/28 06:57:07;;;;;;;4.70;3.10;;;18.00;99.90;;;;;;4978972;28;20141;-74
2023/07/28 06:59:33;;;;;;;5.35;3.15;;;18.00;99.90;;;;;;4980223;28;20165;-76
2023/07/28 07:01:59;;;;;;;6.65;3.58;;;18.10;99.90;;;;;;4976970;28;20484;-76
2023/07/28 07:04:30;;;;;;;5.88;3.60;;;18.10;99.90;;;;;;4973224;28;20046;-74
2023/07/28 07:06:59;;;;;;;5.25;3.25;;;18.10;99.90;;;;;;4972908;28;20550;-76
2023/07/28 07:09:28;;;;;;;6.38;3.85;;;18.10;99.90;;;;;;4972514;28;20049;-74
2023/07/28 07:11:56;;;;;;;9.20;4.20;;;18.10;99.90;;;;;;4974182;28;20059;-76
2023/07/28 07:14:34;;;;;;;6.60;3.78;;;18.10;99.90;;;;;;4973127;28;20023;-75
2023/07/28 07:17:05;;;;;;;6.00;3.90;;;18.20;99.90;;;;;;4977187;28;20390;-75
2023/07/28 07:19:34;;;;;;;5.80;3.50;;;18.20;99.90;;;;;;4971526;28;20058;-75
2023/07/28 07:21:59;;;;;;;4.53;3.67;;;18.20;99.90;;;;;;4973507;28;20412;-75
2023/07/28 07:24:25;;;;;;;7.82;3.92;;;18.30;99.90;;;;;;4970798;28;20035;-75
2023/07/28 07:26:57;;;;;;;4.70;3.28;;;18.30;99.90;;;;;;4970844;28;20465;-75
2023/07/28 07:29:22;;;;;;;6.78;3.67;;;18.40;99.90;;;;;;4967189;28;20051;-76
2023/07/28 07:31:56;;;;;;;7.40;3.33;;;18.40;99.90;;;;;;4975850;28;20477;-75
2023/07/28 07:34:23;;;;;;;5.25;3.63;;;18.50;99.90;;;;;;4972845;28;20393;-76
2023/07/28 07:36:51;;;;;;;5.28;2.88;;;18.60;99.90;;;;;;4970057;28;20061;-76
2023/07/28 07:39:17;;;;;;;5.35;3.35;;;18.70;99.90;;;;;;4981444;28;20031;-76
2023/07/28 07:41:48;;;;;;;5.07;3.30;;;18.70;99.90;;;;;;4985741;28;20135;-76
2023/07/28 07:44:20;;;;;;;7.13;3.17;;;18.80;99.90;;;;;;4980395;28;20042;-76
2023/07/28 07:46:50;;;;;;;8.15;3.60;;;18.80;99.90;;;;;;4984444;28;20030;-76
2023/07/28 07:49:18;;;;;;;5.10;2.75;;;18.90;99.90;;;;;;4973690;28;20023;-76
2023/07/28 07:51:44;;;;;;;5.63;2.83;;;19.00;99.90;;;;;;4974383;28;20030;-76
2023/07/28 07:54:09;;;;;;;8.65;3.35;;;19.00;99.90;;;;;;4973429;28;20687;-76
2023/07/28 07:56:38;;;;;;;7.68;3.58;;;19.10;99.90;;;;;;4977048;28;20027;-76
2023/07/28 07:59:07;;;;;;;7.68;3.10;;;19.10;99.90;;;;;;4975472;28;20050;-76
2023/07/28 08:01:36;;;;;;;6.93;4.07;;;19.20;99.90;;;;;;4977733;28;20041;-76
2023/07/28 08:04:08;;;;;;;5.93;3.25;;;19.20;99.90;;;;;;4975052;28;20105;-75
2023/07/28 08:06:33;;;;;;;12.05;3.78;;;19.30;99.90;;;;;;4983855;28;20094;-75
2023/07/28 08:09:02;;;;;;;6.68;3.40;;;19.30;99.90;;;;;;4975965;28;20065;-74
2023/07/28 08:11:34;;;;;;;8.45;3.50;;;19.30;99.90;;;;;;4974723;28;20023;-75
2023/07/28 08:14:00;;;;;;;5.70;4.07;;;19.40;99.90;;;;;;4974358;28;20101;-75
2023/07/28 08:16:31;;;;;;;7.55;3.75;;;19.40;99.90;;;;;;4982503;28;20111;-75
2023/07/28 08:19:00;;;;;;;7.05;4.15;;;19.50;99.90;;;;;;4974894;28;20031;-74
2023/07/28 08:21:31;;;;;;;7.97;2.85;;;19.60;99.90;;;;;;4975625;28;20084;-74
2023/07/28 08:23:59;;;;;;;7.85;3.53;;;19.70;99.90;;;;;;4975618;28;20038;-75
2023/07/28 08:26:28;;;;;;;6.82;3.42;;;19.80;99.90;;;;;;4975605;28;20099;-75
2023/07/28 08:28:54;;;;;;;5.43;3.15;;;19.90;99.90;;;;;;4975658;28;20034;-75
2023/07/28 08:31:19;;;;;;;6.78;3.17;;;20.00;99.90;;;;;;4975468;28;20106;-75
2023/07/28 08:33:45;;;;;;;3.50;2.50;;;20.20;99.90;;;;;;4974338;28;20022;-75
2023/07/28 08:36:13;;;;;;;6.50;3.67;;;20.30;99.90;;;;;;4974630;28;20027;-74
2023/07/28 08:38:39;;;;;;;4.22;2.20;;;20.30;99.90;;;;;;4975548;28;20019;-74
2023/07/28 08:41:07;;;;;;;5.07;2.97;;;20.40;99.90;;;;;;4975483;28;20007;-74
2023/07/28 08:43:33;;;;;;;6.03;3.33;;;20.50;99.90;;;;;;4974028;28;20482;-75
2023/07/28 08:46:04;;;;;;;5.68;2.95;;;20.70;99.90;;;;;;4973836;28;20077;-74
2023/07/28 08:48:39;;;;;;;7.25;3.53;;;20.90;99.90;;;;;;4975152;28;20022;-76
2023/07/28 08:51:05;;;;;;;6.97;2.78;;;21.00;99.90;;;;;;4975486;28;20029;-75
2023/07/28 08:53:30;;;;;;;5.38;2.42;;;21.10;99.90;;;;;;4974482;28;20398;-74
2023/07/28 08:55:56;;;;;;;5.35;2.58;;;21.20;99.90;;;;;;4981450;28;20081;-75
2023/07/28 08:58:25;;;;;;;2.55;2.13;;;21.20;99.90;;;;;;4994643;28;20042;-76
2023/07/28 09:00:52;;;;;;;5.55;2.42;;;21.40;99.90;;;;;;4994617;28;20031;-74
2023/07/28 09:03:18;;;;;;;4.50;2.13;;;21.40;99.90;;;;;;4993570;28;20026;-73
2023/07/28 09:05:48;;;;;;;4.95;1.85;;;21.50;99.90;;;;;;4988801;28;20031;-74
2023/07/28 09:08:15;;;;;;;2.72;2.00;;;21.60;99.90;;;;;;4973920;28;20059;-74
2023/07/28 09:10:54;;;;;;;3.03;2.17;;;21.70;99.90;;;;;;4974077;28;20022;-74
2023/07/28 09:13:35;;;;;;;3.80;1.95;;;21.80;99.90;;;;;;4973926;28;20050;-75
2023/07/28 09:16:00;;;;;;;3.47;2.65;;;21.90;99.90;;;;;;4974059;28;20567;-75
2023/07/28 09:18:29;;;;;;;3.38;2.42;;;22.10;99.90;;;;;;4973676;28;20054;-74
2023/07/28 09:20:58;;;;;;;4.63;2.30;;;22.20;99.90;;;;;;4972514;28;20573;-75
2023/07/28 09:23:36;;;;;;;3.78;2.47;;;22.30;99.90;;;;;;4973532;28;20035;-74
2023/07/28 09:26:04;;;;;;;2.85;2.20;;;22.30;99.90;;;;;;4973622;28;20549;-73
2023/07/28 09:28:39;;;;;;;3.08;1.92;;;22.40;99.90;;;;;;4972216;28;20022;-74
2023/07/28 09:31:09;;;;;;;2.72;2.15;;;22.50;99.90;;;;;;4973461;28;20370;-73
2023/07/28 09:33:37;;;;;;;2.83;2.20;;;22.50;99.90;;;;;;4973570;28;20018;-73
2023/07/28 09:36:15;;;;;;;4.07;2.20;;;22.60;99.90;;;;;;4973558;28;20019;-73
2023/07/28 09:38:45;;;;;;;6.70;2.45;;;22.70;99.90;;;;;;4973051;28;20110;-73
2023/07/28 09:41:11;;;;;;;4.75;1.85;;;22.80;99.90;;;;;;4972269;28;20023;-72
2023/07/28 09:43:39;;;;;;;2.78;1.90;;;22.90;99.90;;;;;;4973603;28;20114;-77
2023/07/28 09:46:09;;;;;;;5.75;2.45;;;23.00;99.90;;;;;;4971948;28;20058;-73
2023/07/28 09:48:45;;;;;;;4.97;2.17;;;23.10;99.90;;;;;;4970493;28;20517;-74
2023/07/28 09:51:19;;;;;;;6.40;3.38;;;23.30;99.90;;;;;;4972136;28;20027;-74
2023/07/28 09:54:06;;;;;;;7.18;2.63;;;23.40;99.90;;;;;;4972079;28;20046;-74
2023/07/28 09:56:35;;;;;;;4.45;2.22;;;23.70;99.90;;;;;;4973105;28;20023;-75
2023/07/28 09:59:04;;;;;;;3.85;2.30;;;23.90;99.90;;;;;;4973247;28;20042;-74
2023/07/28 10:01:32;;;;;;;4.07;2.58;;;24.10;99.90;;;;;;4991808;28;20019;-73
2023/07/28 10:03:59;;;;;;;2.42;2.15;;;24.20;99.90;;;;;;4991276;28;20038;-74
2023/07/28 10:06:29;;;;;;;4.80;1.80;;;24.40;99.90;;;;;;4985776;28;20065;-75
2023/07/28 10:08:55;;;;;;;3.20;2.05;;;24.40;99.90;;;;;;4966213;28;20022;-73
2023/07/28 10:11:22;;;;;;;3.22;2.08;;;24.50;99.90;;;;;;4976136;28;20038;-73
2023/07/28 10:13:53;;;;;;;2.88;1.67;;;24.50;99.90;;;;;;4972885;28;20050;-74
2023/07/28 10:16:19;;;;;;;3.92;2.00;;;24.50;99.90;;;;;;4972795;28;20122;-73
2023/07/28 10:18:54;;;;;;;3.72;1.90;;;24.40;99.90;;;;;;4972789;28;20041;-74
2023/07/28 10:21:27;;;;;;;3.35;2.00;;;24.30;99.90;;;;;;4972880;28;20114;-74
2023/07/28 10:24:04;;;;;;;3.65;2.47;;;24.30;99.90;;;;;;4972757;28;20493;-73
2023/07/28 10:26:44;;;;;;;2.75;1.80;;;24.30;99.90;;;;;;4972878;28;20618;-74
2023/07/28 10:29:14;;;;;;;3.42;1.98;;;24.30;99.90;;;;;;4964041;28;20110;-75
2023/07/28 10:31:57;;;;;;;2.85;1.85;;;24.30;99.90;;;;;;4955990;28;20027;-74
2023/07/28 10:34:23;;;;;;;3.00;2.03;;;24.30;99.90;;;;;;4971239;28;20058;-74
2023/07/28 10:37:07;;;;;;;2.00;1.55;;;24.30;99.90;;;;;;4951160;29;20058;-74
2023/07/28 10:39:34;;;;;;;2.50;1.70;;;24.30;99.90;;;;;;4968126;28;20098;-73
2023/07/28 10:42:11;;;;;;;3.30;2.00;;;24.20;99.90;;;;;;4969171;28;20027;-75
2023/07/28 10:44:37;;;;;;;2.28;1.52;;;24.20;99.90;;;;;;4969039;28;20080;-74
2023/07/28 10:47:08;;;;;;;5.43;2.78;;;24.10;99.90;;;;;;4970690;28;20019;-74
2023/07/28 10:49:34;;;;;;;4.72;2.00;;;24.10;99.90;;;;;;4967659;28;20469;-75
2023/07/28 10:51:59;;;;;;;4.20;2.15;;;24.10;99.90;;;;;;4972620;28;20026;-74
2023/07/28 10:54:25;;;;;;;3.60;2.33;;;24.10;99.90;;;;;;4972783;28;20027;-74
2023/07/28 10:56:56;;;;;;;3.47;2.20;;;24.10;99.90;;;;;;4977829;28;20034;-74
2023/07/28 10:59:30;;;;;;;3.33;2.03;;;24.20;99.90;;;;;;4975768;28;20065;-75
2023/07/28 11:01:56;;;;;;;2.65;1.80;;;24.30;99.90;;;;;;4967610;28;20394;-75
2023/07/28 11:04:23;;;;;;;4.10;2.10;;;24.30;99.90;;;;;;4974505;28;20508;-75
2023/07/28 11:06:55;;;;;;;3.67;1.90;;;24.30;99.90;;;;;;4975920;28;20021;-74
2023/07/28 11:09:23;;;;;;;2.92;2.08;;;24.40;99.90;;;;;;4974856;28;20034;-73
2023/07/28 11:11:50;;;;;;;3.47;1.73;;;24.60;99.90;;;;;;4975019;28;20019;-74
2023/07/28 11:14:22;;;;;;;3.22;1.73;;;24.60;99.90;;;;;;4976097;28;20042;-74
2023/07/28 11:16:54;;;;;;;4.05;1.77;;;24.70;99.90;;;;;;4976146;28;20158;-74
2023/07/28 11:19:26;;;;;;;3.10;1.90;;;24.80;99.90;;;;;;4976089;28;20027;-73
2023/07/28 11:21:51;;;;;;;3.03;1.83;;;24.90;99.90;;;;;;4976000;28;20034;-73
2023/07/28 11:24:21;;;;;;;2.67;2.13;;;24.90;99.00;;;;;;4974748;28;20035;-74
2023/07/28 11:26:49;;;;;;;3.03;2.20;;;24.90;98.60;;;;;;4971562;28;20483;-74
2023/07/28 11:29:16;;;;;;;2.40;1.80;;;24.90;97.20;;;;;;4968767;28;20062;-74
2023/07/28 11:31:41;;;;;;;3.58;2.00;;;24.80;96.90;;;;;;4974628;28;20027;-76
2023/07/28 11:34:14;;;;;;;2.97;1.80;;;24.70;97.90;;;;;;4968149;28;20085;-74
2023/07/28 11:36:52;;;;;;;3.17;2.15;;;24.40;98.10;;;;;;4975820;28;20037;-75
2023/07/28 11:39:21;;;;;;;3.53;2.20;;;24.20;99.90;;;;;;4977170;28;20512;-75
2023/07/28 11:41:53;;;;;;;3.88;2.15;;;23.90;99.90;;;;;;4971141;28;20023;-75
2023/07/28 11:44:19;;;;;;;3.03;1.92;;;23.60;99.90;;;;;;4973419;28;20158;-75
2023/07/28 11:46:53;;;;;;;5.13;2.25;;;23.20;99.90;;;;;;4975725;28;20113;-74
2023/07/28 11:49:22;;;;;;;4.78;3.00;;;23.10;99.90;;;;;;4975543;28;20019;-75
2023/07/28 11:51:51;;;;;;;3.20;2.33;;;22.90;99.90;;;;;;4970630;28;20061;-74
2023/07/28 11:54:21;;;;;;;3.80;2.20;;;22.80;99.90;;;;;;4972835;28;20035;-74
2023/07/28 11:56:53;;;;;;;3.28;2.00;;;22.70;99.90;;;;;;4974138;28;20026;-74
2023/07/28 11:59:20;;;;;;;4.70;3.03;;;22.60;99.90;;;;;;4982428;28;20031;-75
2023/07/28 12:01:54;;;;;;;7.03;2.50;;;22.60;99.90;;;;;;4965921;28;20426;-73
2023/07/28 12:04:20;;;;;;;;;;;22.60;99.90;;;;;;4974462;28;20037;-75
2023/07/28 12:07:06;;;;;;;3.03;2.17;;;22.50;99.90;;;;;;4975352;28;20492;-74
2023/07/28 12:09:59;;;;;;;4.15;2.20;;;22.60;99.90;;;;;;4971283;28;20515;-76
2023/07/28 12:12:29;;;;;;;3.97;2.60;;;22.70;99.90;;;;;;4971145;28;20054;-76
2023/07/28 12:15:04;;;;;;;3.33;2.45;;;22.70;99.90;;;;;;4969215;28;20059;-76
2023/07/28 12:17:30;;;;;;;3.40;2.17;;;22.80;99.90;;;;;;4958343;28;20032;-75
2023/07/28 12:20:14;;;;;;;3.92;2.63;;;22.90;99.90;;;;;;4975025;28;20023;-76
2023/07/28 12:22:44;;;;;;;3.78;2.33;;;23.00;99.90;;;;;;4973638;28;20039;-73
2023/07/28 12:25:11;;;;;;;5.30;2.22;;;23.00;99.90;;;;;;4974999;28;20405;-73
2023/07/28 12:27:37;;;;;;;4.00;2.80;;;23.10;99.90;;;;;;4973408;28;20027;-73
2023/07/28 12:30:03;;;;;;;3.72;2.30;;;23.10;99.90;;;;;;4976488;28;20029;-75
2023/07/28 12:32:35;;;;;;;3.58;2.28;;;23.10;99.90;;;;;;4978917;28;20382;-75
2023/07/28 12:35:04;;;;;;;3.30;2.03;;;23.20;99.90;;;;;;4975539;28;20035;-74
2023/07/28 12:37:29;;;;;;;4.95;2.50;;;23.20;99.90;;;;;;4975605;28;20034;-73
2023/07/28 12:39:58;;;;;;;4.72;2.13;;;23.20;99.90;;;;;;4980474;28;20081;-73
2023/07/28 12:42:24;;;;;;;4.38;1.90;;;23.20;99.90;;;;;;4977994;28;20026;-75
2023/07/28 12:44:59;;;;;;;4.28;2.10;;;23.20;99.90;;;;;;4975007;28;20129;-75
2023/07/28 12:47:25;;;;;;;3.60;2.40;;;23.20;99.90;;;;;;4975629;28;20035;-74
2023/07/28 12:49:50;;;;;;;2.83;2.00;;;23.30;99.90;;;;;;4976399;28;20025;-74
2023/07/28 12:52:16;;;;;;;4.22;2.00;;;23.40;99.90;;;;;;4976714;28;20023;-74
2023/07/28 12:54:45;;;;;;;3.30;2.35;;;23.40;99.90;;;;;;4971658;28;20035;-74
2023/07/28 12:57:12;;;;;;;3.03;2.25;;;23.40;99.90;;;;;;4994512;28;20026;-73